Orchid Ace — 7JDE — position and weather

sailwx.info

Track history (hours):
 
Tides and Currents Weather Stations Pressure Air Temp Water Temp Dewpoint Dewpoint Depression Visibility Wind Speed Wind Dir Waves Ship Positions

Orchid Ace

Last reported at 2015-Apr-01 11:32 UTC. Time now 2015-Apr-27 07:15 UTC.
Position S 20°08' E 057°28'.
Warning: this ship's position is 25 days out of date.

Length 200 m; draft 8.8 m.

Type: Cargo ship. MMSI: 432651000.

Date/timePositionNaut miles runAvg speedWind from/ knotsBaromVisibWave heightAir tempDewpointWater temp
2015-Apr-01 11:32S 20°08' E 057°28'1 1.5
2015-Apr-01 10:33S 20°09' E 057°30'0 0.0
2015-Apr-01 09:33S 20°09' E 057°30'0 0.0
2015-Apr-01 08:33S 20°09' E 057°30'0 0.0
2015-Apr-01 07:27S 20°09' E 057°30'0 0.0
2015-Apr-01 06:33S 20°09' E 057°30'0 0.0
2015-Apr-01 05:33S 20°09' E 057°30'0 0.0
2015-Apr-01 04:33S 20°09' E 057°30'0 0.0
2015-Apr-01 03:33S 20°09' E 057°30'0 0.0
2015-Apr-01 02:21S 20°09' E 057°30'2 2.0
2015-Apr-01 01:33S 20°08' E 057°28'  
2015-Mar-24 16:33N 02°04' E 102°08'1818.0
2015-Mar-24 15:33N 01°54' E 102°24'1818.1
2015-Mar-24 14:33N 01°46' E 102°40'7210.0
2015-Mar-24 07:22N 01°17' E 103°45'0 0.0
2015-Mar-24 06:28N 01°17' E 103°45'0 0.0
2015-Mar-24 05:28N 01°17' E 103°45'0 0.0
2015-Mar-24 04:28N 01°17' E 103°45'0 0.0
2015-Mar-24 02:28N 01°17' E 103°45'6 1.3
2015-Mar-23 21:32N 01°12' E 103°50'9 8.8
2015-Mar-23 20:32N 01°15' E 103°58'  
Track history (hours):
 
Tides and Currents Weather Stations Pressure Air Temp Water Temp Dewpoint Dewpoint Depression Visibility Wind Speed Wind Dir Waves Ship Positions

Orchid Ace

Last reported at 2015-Apr-01 11:32 UTC. Time now 2015-Apr-27 07:15 UTC.
Position S 20°08' E 057°28'.
Warning: this ship's position is 25 days out of date.

Length 200 m; draft 8.8 m.

Type: Cargo ship. MMSI: 432651000.

Date/timePositionNaut miles runAvg speedWind from/ knotsBaromVisibWave heightAir tempDewpointWater temp
2015-Apr-01 11:32S 20°08' E 057°28'1 1.5
2015-Apr-01 10:33S 20°09' E 057°30'0 0.0
2015-Apr-01 09:33S 20°09' E 057°30'0 0.0
2015-Apr-01 08:33S 20°09' E 057°30'0 0.0
2015-Apr-01 07:27S 20°09' E 057°30'0 0.0
2015-Apr-01 06:33S 20°09' E 057°30'0 0.0
2015-Apr-01 05:33S 20°09' E 057°30'0 0.0
2015-Apr-01 04:33S 20°09' E 057°30'0 0.0
2015-Apr-01 03:33S 20°09' E 057°30'0 0.0
2015-Apr-01 02:21S 20°09' E 057°30'2 2.0
2015-Apr-01 01:33S 20°08' E 057°28'  
2015-Mar-24 16:33N 02°04' E 102°08'1818.0
2015-Mar-24 15:33N 01°54' E 102°24'1818.1
2015-Mar-24 14:33N 01°46' E 102°40'7210.0
2015-Mar-24 07:22N 01°17' E 103°45'0 0.0
2015-Mar-24 06:28N 01°17' E 103°45'0 0.0
2015-Mar-24 05:28N 01°17' E 103°45'0 0.0
2015-Mar-24 04:28N 01°17' E 103°45'0 0.0
2015-Mar-24 02:28N 01°17' E 103°45'6 1.3
2015-Mar-23 21:32N 01°12' E 103°50'9 8.8
2015-Mar-23 20:32N 01°15' E 103°58'  

Dump ship's entire track history